createdAt,value
2023-01-27T00:04:49.916Z,1.30
2023-01-27T00:09:51.676Z,1.30
2023-01-27T00:14:53.375Z,1.20
2023-01-27T00:19:55.133Z,1.20
2023-01-27T00:24:56.887Z,1.10
2023-01-27T00:29:58.612Z,1.00
2023-01-27T00:35:00.352Z,1.00
2023-01-27T00:40:02.185Z,0.90
2023-01-27T00:45:23.142Z,0.70
2023-01-27T00:50:25.366Z,0.50
2023-01-27T00:55:27.076Z,0.50
2023-01-27T01:00:28.781Z,0.40
2023-01-27T01:05:30.587Z,0.40
2023-01-27T01:10:32.443Z,0.40
2023-01-27T01:15:36.774Z,0.50
2023-01-27T01:20:41.447Z,0.50
2023-01-27T01:25:43.453Z,0.50
2023-01-27T01:30:45.198Z,0.50
2023-01-27T01:35:47.195Z,0.50
2023-01-27T01:40:48.902Z,0.50
2023-01-27T01:45:58.901Z,0.50
2023-01-27T01:51:10.816Z,0.50
2023-01-27T01:56:17.874Z,0.60
2023-01-27T02:01:19.709Z,0.50
2023-01-27T02:06:22.051Z,0.60
2023-01-27T02:11:24.000Z,0.60
2023-01-27T02:16:25.787Z,0.60
2023-01-27T02:21:27.561Z,0.60
2023-01-27T02:26:33.952Z,0.60
2023-01-27T02:31:35.975Z,0.60
2023-01-27T02:36:47.985Z,0.60
2023-01-27T02:41:53.186Z,0.70
2023-01-27T02:46:54.950Z,0.70
2023-01-27T02:51:56.897Z,0.70
2023-01-27T02:56:58.783Z,0.70
2023-01-27T03:02:00.576Z,0.80
2023-01-27T03:07:02.369Z,0.70
2023-01-27T03:12:22.609Z,0.70
2023-01-27T03:17:42.918Z,0.60
2023-01-27T03:22:44.934Z,0.60
2023-01-27T03:27:46.637Z,0.50
2023-01-27T03:32:48.409Z,0.60
2023-01-27T03:38:08.830Z,0.50
2023-01-27T03:43:29.486Z,0.40
2023-01-27T03:48:32.111Z,0.40
2023-01-27T03:53:35.316Z,0.50
2023-01-27T03:58:38.211Z,0.50
2023-01-27T04:03:58.444Z,0.50
2023-01-27T04:09:00.742Z,0.50
2023-01-27T04:14:04.375Z,0.40
2023-01-27T04:19:08.038Z,0.50
2023-01-27T04:24:22.512Z,0.40
2023-01-27T04:29:27.229Z,0.60
2023-01-27T04:34:29.470Z,0.60
2023-01-27T04:39:31.388Z,0.60
2023-01-27T04:44:33.132Z,0.80
2023-01-27T04:49:34.848Z,0.80
2023-01-27T04:54:36.976Z,0.80
2023-01-27T04:59:38.735Z,0.90
2023-01-27T05:04:40.464Z,0.90
2023-01-27T05:09:42.208Z,0.90
2023-01-27T05:14:43.887Z,0.90
2023-01-27T05:19:45.734Z,1.00
2023-01-27T05:24:47.470Z,1.00
2023-01-27T05:29:49.467Z,0.90
2023-01-27T05:34:51.392Z,0.90
2023-01-27T05:39:53.442Z,1.00
2023-01-27T05:44:55.333Z,0.90
2023-01-27T05:49:57.057Z,0.90
2023-01-27T05:54:59.137Z,0.90
2023-01-27T06:00:00.863Z,0.90
2023-01-27T06:05:02.762Z,0.90
2023-01-27T06:10:05.693Z,1.00
2023-01-27T06:15:07.972Z,0.90
2023-01-27T06:20:10.494Z,0.90
2023-01-27T06:25:12.581Z,1.00
2023-01-27T06:30:14.740Z,1.00
2023-01-27T06:35:16.560Z,1.00
2023-01-27T06:40:19.764Z,1.00
2023-01-27T06:45:21.922Z,1.00
2023-01-27T06:50:24.669Z,1.00
2023-01-27T06:55:27.120Z,1.10
2023-01-27T07:00:29.324Z,1.20
2023-01-27T07:05:32.156Z,1.20
2023-01-27T07:10:33.891Z,1.20
2023-01-27T07:15:35.911Z,1.20
2023-01-27T07:20:37.695Z,1.20
2023-01-27T07:25:39.969Z,1.20
2023-01-27T07:30:43.294Z,1.20
2023-01-27T07:35:50.191Z,1.20
2023-01-27T07:40:52.031Z,1.20
2023-01-27T07:45:56.824Z,1.20
2023-01-27T07:50:58.532Z,1.20
2023-01-27T07:56:00.958Z,1.20
2023-01-27T08:01:06.025Z,1.20
2023-01-27T08:06:10.292Z,1.30
2023-01-27T08:11:14.145Z,1.40
2023-01-27T08:16:16.346Z,1.40
2023-01-27T08:21:18.101Z,1.50
2023-01-27T08:26:20.095Z,1.60
2023-01-27T08:31:22.094Z,1.60
2023-01-27T08:36:24.703Z,1.60
2023-01-27T08:41:27.418Z,1.60
2023-01-27T08:46:29.258Z,1.60
2023-01-27T08:51:31.046Z,1.70
2023-01-27T08:56:33.199Z,1.60
2023-01-27T09:01:35.014Z,1.60
2023-01-27T09:06:36.903Z,1.60
2023-01-27T09:11:41.737Z,1.50
2023-01-27T09:16:43.546Z,1.60
2023-01-27T09:21:45.296Z,1.50
2023-01-27T09:26:47.115Z,1.40
2023-01-27T09:31:48.854Z,1.50
2023-01-27T09:37:02.551Z,1.50
2023-01-27T09:42:22.079Z,1.50
2023-01-27T09:47:46.401Z,1.80
2023-01-27T09:53:07.246Z,1.90
2023-01-27T09:58:46.434Z,2.10
2023-01-27T10:04:14.553Z,2.20
2023-01-27T10:09:49.924Z,2.00
2023-01-27T10:15:06.512Z,1.90
2023-01-27T10:20:26.690Z,2.10
2023-01-27T10:25:48.491Z,2.10
2023-01-27T10:30:59.510Z,2.10
2023-01-27T10:36:10.675Z,2.40
2023-01-27T10:41:34.627Z,2.20
2023-01-27T10:46:42.078Z,2.30
2023-01-27T10:51:56.404Z,2.30
2023-01-27T10:57:07.852Z,2.20
2023-01-27T11:02:09.624Z,2.00
2023-01-27T11:07:17.715Z,2.00
2023-01-27T11:12:29.508Z,1.80
2023-01-27T11:17:50.264Z,2.00
2023-01-27T11:23:04.411Z,2.30
2023-01-27T11:28:30.355Z,2.40
2023-01-27T11:33:44.313Z,2.60
2023-01-27T11:38:46.756Z,2.40
2023-01-27T11:43:49.042Z,2.30
2023-01-27T11:48:55.633Z,2.40
2023-01-27T11:54:18.446Z,2.20
2023-01-27T11:59:30.842Z,2.10
2023-01-27T12:04:38.789Z,2.10
2023-01-27T12:09:42.039Z,1.70
2023-01-27T12:14:55.647Z,1.60
2023-01-27T12:20:02.156Z,1.70
2023-01-27T12:25:08.325Z,1.80
2023-01-27T12:30:22.189Z,1.90
2023-01-27T12:35:25.425Z,2.00
2023-01-27T12:40:29.151Z,2.20
2023-01-27T12:45:35.514Z,2.20
2023-01-27T12:50:50.591Z,2.30
2023-01-27T12:56:08.911Z,1.90
2023-01-27T13:01:30.251Z,1.70
2023-01-27T13:06:55.726Z,1.80
2023-01-27T13:12:00.889Z,1.90
2023-01-27T13:17:03.624Z,1.70
2023-01-27T13:22:06.169Z,1.60
2023-01-27T13:27:15.760Z,1.40
2023-01-27T13:32:27.302Z,1.50
2023-01-27T13:38:15.196Z,1.50
2023-01-27T13:43:31.616Z,1.20
2023-01-27T13:48:41.393Z,1.10
2023-01-27T13:53:44.926Z,1.10
2023-01-27T13:59:19.953Z,1.10
2023-01-27T14:04:30.723Z,1.20
2023-01-27T14:09:57.610Z,1.10
2023-01-27T14:15:21.041Z,1.20
2023-01-27T14:20:38.280Z,1.10
2023-01-27T14:25:52.167Z,1.00
2023-01-27T14:31:19.662Z,0.90
2023-01-27T14:36:32.899Z,0.90
2023-01-27T14:41:43.408Z,0.80
2023-01-27T14:47:10.999Z,0.70
2023-01-27T14:52:20.365Z,0.70
2023-01-27T14:57:48.384Z,0.70
2023-01-27T15:03:28.081Z,0.60
2023-01-27T15:08:36.101Z,0.60
2023-01-27T15:14:08.816Z,0.60
2023-01-27T15:19:39.435Z,0.60
2023-01-27T15:25:03.092Z,0.60
2023-01-27T15:30:31.216Z,0.60
2023-01-27T15:35:36.253Z,0.70
2023-01-27T15:40:57.708Z,0.70
2023-01-27T15:46:30.136Z,0.70
2023-01-27T15:51:36.611Z,0.60
2023-01-27T15:56:55.294Z,0.60
2023-01-27T16:02:14.765Z,0.50
2023-01-27T16:07:33.919Z,0.60
2023-01-27T16:12:45.029Z,0.60
2023-01-27T16:17:59.418Z,0.60
2023-01-27T16:23:22.712Z,0.60
2023-01-27T16:28:32.595Z,0.60
2023-01-27T16:33:39.112Z,0.60
2023-01-27T16:38:43.662Z,0.60
2023-01-27T16:43:52.066Z,0.60
2023-01-27T16:48:54.216Z,0.50
2023-01-27T16:53:59.030Z,0.50
2023-01-27T16:59:10.260Z,0.40
2023-01-27T17:04:22.544Z,0.30
2023-01-27T17:09:29.507Z,0.30
2023-01-27T17:14:34.831Z,0.30
2023-01-27T17:19:37.627Z,0.30
2023-01-27T17:24:50.062Z,0.30
2023-01-27T17:30:00.107Z,0.30
2023-01-27T17:35:05.594Z,0.30
2023-01-27T17:40:15.905Z,0.30
2023-01-27T17:45:26.813Z,0.20
2023-01-27T17:50:37.897Z,0.10
2023-01-27T17:55:40.057Z,0.10
2023-01-27T18:00:45.092Z,0.10
2023-01-27T18:05:52.114Z,0.10
2023-01-27T18:11:08.020Z,0.00
2023-01-27T18:16:21.466Z,-0.10
2023-01-27T18:21:27.032Z,-0.10
2023-01-27T18:26:33.855Z,-0.20
2023-01-27T18:31:44.272Z,-0.20
2023-01-27T18:36:53.375Z,-0.20
2023-01-27T18:41:55.225Z,-0.30
2023-01-27T18:47:09.928Z,-0.30
2023-01-27T18:52:13.936Z,-0.30
2023-01-27T18:57:15.623Z,-0.30
2023-01-27T19:02:17.561Z,-0.30
2023-01-27T19:07:19.583Z,-0.20
2023-01-27T19:12:21.316Z,-0.20
2023-01-27T19:17:23.952Z,-0.20
2023-01-27T19:22:25.955Z,-0.20
2023-01-27T19:27:27.998Z,-0.10
2023-01-27T19:32:29.932Z,-0.10
2023-01-27T19:37:33.059Z,-0.20
2023-01-27T19:42:34.934Z,-0.20
2023-01-27T19:47:36.695Z,-0.20
2023-01-27T19:52:38.391Z,-0.20
2023-01-27T19:57:40.955Z,-0.20
2023-01-27T20:02:43.600Z,-0.20
2023-01-27T20:07:45.744Z,-0.30
2023-01-27T20:13:03.247Z,-0.30
2023-01-27T20:18:05.096Z,-0.30
2023-01-27T20:23:07.481Z,-0.30
2023-01-27T20:28:10.212Z,-0.40
2023-01-27T20:33:13.775Z,-0.30
2023-01-27T20:38:15.487Z,-0.40
2023-01-27T20:43:29.849Z,-0.40
2023-01-27T20:48:36.423Z,-0.30
2023-01-27T20:53:46.024Z,-0.40
2023-01-27T20:58:48.903Z,-0.50
2023-01-27T21:03:51.006Z,-0.50
2023-01-27T21:08:53.215Z,-0.50
2023-01-27T21:13:55.113Z,-0.50
2023-01-27T21:18:56.880Z,-0.50
2023-01-27T21:24:02.488Z,-0.40
2023-01-27T21:29:10.424Z,-0.50
2023-01-27T21:34:12.450Z,-0.50
2023-01-27T21:39:14.140Z,-0.50
2023-01-27T21:44:40.420Z,-0.60
2023-01-27T21:50:03.105Z,-0.70
2023-01-27T21:55:08.443Z,-0.70
2023-01-27T22:00:11.971Z,-0.60
2023-01-27T22:05:14.269Z,-0.60
2023-01-27T22:10:20.197Z,-0.60
2023-01-27T22:15:22.192Z,-0.60
2023-01-27T22:20:24.415Z,-0.60
2023-01-27T22:25:27.586Z,-0.60
2023-01-27T22:30:29.467Z,-0.60
2023-01-27T22:35:31.251Z,-0.60
2023-01-27T22:40:33.356Z,-0.70
2023-01-27T22:45:38.962Z,-0.70
2023-01-27T22:50:41.949Z,-0.80
2023-01-27T22:55:44.087Z,-0.70
2023-01-27T23:00:45.968Z,-0.70
2023-01-27T23:05:48.564Z,-0.90
2023-01-27T23:10:50.700Z,-0.90
2023-01-27T23:15:52.397Z,-1.00
2023-01-27T23:20:54.341Z,-1.00
2023-01-27T23:25:56.278Z,-0.90
2023-01-27T23:30:58.129Z,-1.00
2023-01-27T23:35:59.915Z,-1.00
2023-01-27T23:41:07.031Z,-1.00
2023-01-27T23:46:11.034Z,-1.00
2023-01-27T23:51:13.748Z,-1.00
2023-01-27T23:56:18.873Z,-1.00
